^^
Grace C. Lehan Memorial Weather Station Historical Data
Daily Summary for April 3, 2021 Units:  Both    English   Metric
Daily Weekly Monthly Yearly
  High: Low: Average:
Temperature: 71.4 °F /  21.9 °C 53.1 °F /  11.7 °C 61.1 °F /  16.2 °C
Dew Point: 55.7 °F /  13.2 °C 48.1 °F /  8.9 °C 51.7 °F /  10.9 °C
Humidity: 94% 44% 73%
Wind Speed: 1.8mph /  2.9km/h - 0.1mph /  0.2km/h
Wind Gust: 9mph /  14.5km/h - -
Wind- - SSE
Pressure: 29.87 in /  1011.4 hPa 29.77 in /  1008 hPa -
Precipitation: 0.41 in /  10.41 mm    
 
 
Tabular Data for April 3, 2021
Time Temperature Dew Point Pressure Wind Wind Speed Wind Gust Humidity Rainfall Rate (Hourly) solar
00:09 59.5 °F /  15.3 °C 51.2 °F /  10.7 °C 29.80in /  1009hPa Calm     74% 0.00in /  0mm 0 W/m2
00:14 59.5 °F /  15.3 °C 51.4 °F /  10.8 °C 29.80in /  1009hPa Calm     74.6% 0.00in /  0mm 0 W/m2
00:19 59.4 °F /  15.2 °C 51.4 °F /  10.8 °C 29.80in /  1009hPa Calm     75% 0.00in /  0mm 0 W/m2
00:24 59.3 °F /  15.2 °C 51.3 °F /  10.7 °C 29.80in /  1009hPa Calm     75% 0.00in /  0mm 0 W/m2
00:29 59.2 °F /  15.1 °C 51.2 °F /  10.7 °C 29.81in /  1009.4hPa Calm     75% 0.00in /  0mm 0 W/m2
00:34 59.1 °F /  15.1 °C 51.2 °F /  10.7 °C 29.81in /  1009.4hPa Calm     75% 0.00in /  0mm 0 W/m2
00:39 59 °F /  15 °C 51 °F /  10.6 °C 29.80in /  1009hPa Calm     74.7% 0.00in /  0mm 0 W/m2
00:44 58.9 °F /  14.9 °C 50.6 °F /  10.3 °C 29.80in /  1009hPa Calm     74% 0.00in /  0mm 0 W/m2
00:49 58.8 °F /  14.9 °C 50.7 °F /  10.4 °C 29.80in /  1009hPa Calm     74.6% 0.00in /  0mm 0 W/m2
00:54 58.7 °F /  14.8 °C 50.8 °F /  10.4 °C 29.80in /  1009hPa WSW 0.2mph /  0.3km/h 3mph /  4.8km/h 75% 0.00in /  0mm 0 W/m2
00:59 58.5 °F /  14.7 °C 50.6 °F /  10.3 °C 29.80in /  1009hPa WSW 0.3mph /  0.5km/h 3mph /  4.8km/h 74.9% 0.00in /  0mm 0 W/m2
01:04 58.4 °F /  14.7 °C 50.1 °F /  10.1 °C 29.80in /  1009hPa WSW 0.3mph /  0.5km/h 3mph /  4.8km/h 74% 0.00in /  0mm 0 W/m2
01:09 58.2 °F /  14.6 °C 50 °F /  10 °C 29.80in /  1009hPa WSW 0.1mph /  0.2km/h 3mph /  4.8km/h 74% 0.00in /  0mm 0 W/m2
01:14 58.2 °F /  14.6 °C 50.2 °F /  10.1 °C 29.80in /  1009hPa Calm   3mph /  4.8km/h 74.8% 0.00in /  0mm 0 W/m2
01:19 58.1 °F /  14.5 °C 50.2 °F /  10.1 °C 29.80in /  1009hPa Calm   3mph /  4.8km/h 75% 0.00in /  0mm 0 W/m2
01:24 58 °F /  14.4 °C 50.1 °F /  10.1 °C 29.80in /  1009hPa Calm   3mph /  4.8km/h 75% 0.00in /  0mm 0 W/m2
01:29 57.8 °F /  14.3 °C 50 °F /  10 °C 29.80in /  1009hPa Calm   3mph /  4.8km/h 75% 0.00in /  0mm 0 W/m2
01:34 57.7 °F /  14.3 °C 49.9 °F /  9.9 °C 29.80in /  1009hPa Calm   3mph /  4.8km/h 75% 0.00in /  0mm 0 W/m2
01:39 57.6 °F /  14.2 °C 49.8 °F /  9.9 °C 29.80in /  1009hPa Calm     75.2% 0.00in /  0mm 0 W/m2
01:44 57.5 °F /  14.2 °C 49.9 °F /  9.9 °C 29.80in /  1009hPa Calm     75.8% 0.00in /  0mm 0 W/m2
01:49 57.3 °F /  14.1 °C 49.8 °F /  9.9 °C 29.81in /  1009.4hPa Calm     76% 0.00in /  0mm 0 W/m2
01:54 57.2 °F /  14 °C 49.7 °F /  9.8 °C 29.80in /  1009hPa Calm     76% 0.00in /  0mm 0 W/m2
01:59 57.1 °F /  13.9 °C 49.6 °F /  9.8 °C 29.80in /  1009hPa Calm     76% 0.00in /  0mm 0 W/m2
02:04 57.1 °F /  13.9 °C 49.6 °F /  9.8 °C 29.81in /  1009.4hPa Calm     76% 0.00in /  0mm 0 W/m2
02:09 57 °F /  13.9 °C 49.5 °F /  9.7 °C 29.81in /  1009.4hPa Calm     76% 0.00in /  0mm 0 W/m2
02:14 56.9 °F /  13.8 °C 49.4 °F /  9.7 °C 29.81in /  1009.4hPa Calm     76% 0.00in /  0mm 0 W/m2
02:19 56.9 °F /  13.8 °C 49.4 °F /  9.7 °C 29.81in /  1009.4hPa Calm     76% 0.00in /  0mm 0 W/m2
02:24 56.9 °F /  13.8 °C 49.5 °F /  9.7 °C 29.81in /  1009.4hPa Calm     76% 0.00in /  0mm 0 W/m2
02:29 57 °F /  13.9 °C 49.5 °F /  9.7 °C 29.81in /  1009.4hPa Calm     76% 0.00in /  0mm 0 W/m2
02:34 57.1 °F /  13.9 °C 49.8 °F /  9.9 °C 29.81in /  1009.4hPa Calm     76.6% 0.00in /  0mm 0 W/m2
02:39 57.1 °F /  13.9 °C 50 °F /  10 °C 29.80in /  1009hPa Calm     76.9% 0.00in /  0mm 0 W/m2
02:44 57.1 °F /  13.9 °C 49.6 °F /  9.8 °C 29.80in /  1009hPa Calm     76% 0.00in /  0mm 0 W/m2
02:49 57.1 °F /  13.9 °C 49.4 °F /  9.7 °C 29.80in /  1009hPa WSW 0.1mph /  0.2km/h 2mph /  3.2km/h 75.5% 0.00in /  0mm 0 W/m2
02:54 57.2 °F /  14 °C 49.4 °F /  9.7 °C 29.80in /  1009hPa Calm   2mph /  3.2km/h 75% 0.00in /  0mm 0 W/m2
02:59 57.2 °F /  14 °C 49.4 °F /  9.7 °C 29.80in /  1009hPa Calm   2mph /  3.2km/h 75% 0.00in /  0mm 0 W/m2
03:04 57.2 °F /  14 °C 49.4 °F /  9.7 °C 29.80in /  1009hPa Calm   2mph /  3.2km/h 75% 0.00in /  0mm 0 W/m2
03:09 57.2 °F /  14 °C 49.5 °F /  9.7 °C 29.81in /  1009.4hPa Calm     75.6% 0.00in /  0mm 0 W/m2
03:14 57 °F /  13.9 °C 49.6 °F /  9.8 °C 29.81in /  1009.4hPa Calm     76.2% 0.00in /  0mm 0 W/m2
03:19 56.9 °F /  13.8 °C 49.9 °F /  9.9 °C 29.80in /  1009hPa Calm     77.3% 0.00in /  0mm 0 W/m2
03:24 56.8 °F /  13.8 °C 50 °F /  10 °C 29.81in /  1009.4hPa Calm     78% 0.00in /  0mm 0 W/m2
03:29 56.7 °F /  13.7 °C 50.3 °F /  10.2 °C 29.81in /  1009.4hPa Calm     79.3% 0.00in /  0mm 0 W/m2
03:34 56.6 °F /  13.7 °C 50.5 °F /  10.3 °C 29.81in /  1009.4hPa Calm     80% 0.00in /  0mm 0 W/m2
03:39 56.5 °F /  13.6 °C 50.4 °F /  10.2 °C 29.82in /  1009.7hPa Calm     80% 0.00in /  0mm 0 W/m2
03:44 56.4 °F /  13.6 °C 50.6 °F /  10.3 °C 29.82in /  1009.7hPa Calm     80.9% 0.00in /  0mm 0 W/m2
03:49 56.3 °F /  13.5 °C 50.5 °F /  10.3 °C 29.81in /  1009.4hPa Calm     81% 0.00in /  0mm 0 W/m2
03:54 56.2 °F /  13.4 °C 50.4 °F /  10.2 °C 29.81in /  1009.4hPa Calm     81% 0.00in /  0mm 0 W/m2
03:59 56 °F /  13.3 °C 50.3 °F /  10.2 °C 29.81in /  1009.4hPa Calm     81% 0.00in /  0mm 0 W/m2
04:00 55.9 °F /  13.3 °C 50.2 °F /  10.1 °C 29.81in /  1009.4hPa Calm     81% 0.00in /  0mm 0 W/m2
04:09 55.7 °F /  13.2 °C 50 °F /  10 °C 29.81in /  1009.4hPa Calm     81% 0.00in /  0mm 0 W/m2
04:14 55.5 °F /  13.1 °C 49.8 °F /  9.9 °C 29.81in /  1009.4hPa Calm     81% 0.00in /  0mm 0 W/m2
04:19 55.4 °F /  13 °C 49.9 °F /  9.9 °C 29.81in /  1009.4hPa Calm     81.7% 0.00in /  0mm 0 W/m2
04:24 55.3 °F /  12.9 °C 49.9 °F /  9.9 °C 29.81in /  1009.4hPa Calm     82% 0.00in /  0mm 0 W/m2
04:29 55.1 °F /  12.8 °C 49.9 °F /  9.9 °C 29.81in /  1009.4hPa Calm     82.5% 0.00in /  0mm 0 W/m2
04:34 55 °F /  12.8 °C 50 °F /  10 °C 29.81in /  1009.4hPa Calm     83% 0.00in /  0mm 0 W/m2
04:39 55 °F /  12.8 °C 49.9 °F /  9.9 °C 29.81in /  1009.4hPa Calm     83% 0.00in /  0mm 0 W/m2
04:44 54.8 °F /  12.7 °C 49.8 °F /  9.9 °C 29.82in /  1009.7hPa Calm     83% 0.00in /  0mm 0 W/m2
04:49 54.7 °F /  12.6 °C 49.8 °F /  9.9 °C 29.82in /  1009.7hPa Calm     83.7% 0.00in /  0mm 0 W/m2
04:54 54.5 °F /  12.5 °C 49.8 °F /  9.9 °C 29.82in /  1009.7hPa Calm     84% 0.00in /  0mm 0 W/m2
04:59 54.4 °F /  12.4 °C 49.7 °F /  9.8 °C 29.82in /  1009.7hPa Calm     84% 0.00in /  0mm 0 W/m2
05:04 54.3 °F /  12.4 °C 49.6 °F /  9.8 °C 29.82in /  1009.7hPa Calm     84% 0.00in /  0mm 0 W/m2
05:09 54.2 °F /  12.3 °C 49.6 °F /  9.8 °C 29.82in /  1009.7hPa Calm     84.3% 0.00in /  0mm 0 W/m2
05:14 54.1 °F /  12.3 °C 49.7 °F /  9.8 °C 29.82in /  1009.7hPa Calm     85% 0.00in /  0mm 0 W/m2
05:19 53.9 °F /  12.2 °C 49.6 °F /  9.8 °C 29.82in /  1009.7hPa Calm     85.3% 0.00in /  0mm 0 W/m2
05:24 53.8 °F /  12.1 °C 49.7 °F /  9.8 °C 29.82in /  1009.7hPa Calm     86% 0.00in /  0mm 0 W/m2
05:29 53.6 °F /  12 °C 49.6 °F /  9.8 °C 29.82in /  1009.7hPa Calm     86% 0.00in /  0mm 0 W/m2
05:34 53.5 °F /  11.9 °C 49.5 °F /  9.7 °C 29.82in /  1009.7hPa Calm     86% 0.00in /  0mm 0 W/m2
05:39 53.5 °F /  11.9 °C 49.7 °F /  9.8 °C 29.83in /  1010hPa Calm     86.8% 0.00in /  0mm 0 W/m2
05:44 53.5 °F /  11.9 °C 49.7 °F /  9.8 °C 29.83in /  1010hPa Calm     87% 0.00in /  0mm 0 W/m2
05:49 53.4 °F /  11.9 °C 49.6 °F /  9.8 °C 29.83in /  1010hPa Calm     87% 0.00in /  0mm 5 W/m2
05:54 53.3 °F /  11.8 °C 49.5 °F /  9.7 °C 29.83in /  1010hPa Calm     87% 0.00in /  0mm 9 W/m2
05:59 53.2 °F /  11.8 °C 49.7 °F /  9.8 °C 29.83in /  1010hPa Calm     87.8% 0.00in /  0mm 12 W/m2
06:04 53.1 °F /  11.7 °C 49.7 °F /  9.8 °C 29.84in /  1010.4hPa Calm     88% 0.00in /  0mm 16 W/m2
06:09 53.1 °F /  11.7 °C 49.7 °F /  9.8 °C 29.84in /  1010.4hPa Calm     88% 0.00in /  0mm 23 W/m2
06:14 53.1 °F /  11.7 °C 49.7 °F /  9.8 °C 29.84in /  1010.4hPa Calm     88% 0.00in /  0mm 32 W/m2
06:19 53.1 °F /  11.7 °C 49.7 °F /  9.8 °C 29.84in /  1010.4hPa Calm     88% 0.00in /  0mm 42 W/m2
06:24 53.1 °F /  11.7 °C 49.7 °F /  9.8 °C 29.84in /  1010.4hPa Calm     88.2% 0.00in /  0mm 56 W/m2
06:29 53.2 °F /  11.8 °C 49.9 °F /  9.9 °C 29.84in /  1010.4hPa Calm     88.8% 0.00in /  0mm 67 W/m2
06:34 53.3 °F /  11.8 °C 50.2 °F /  10.1 °C 29.85in /  1010.7hPa Calm     89% 0.00in /  0mm 72 W/m2
06:39 53.6 °F /  12 °C 50.5 °F /  10.3 °C 29.85in /  1010.7hPa Calm     89% 0.00in /  0mm 83 W/m2
06:44 53.9 °F /  12.2 °C 50.8 °F /  10.4 °C 29.85in /  1010.7hPa Calm     89% 0.00in /  0mm 95 W/m2
06:49 54.2 °F /  12.3 °C 51.1 °F /  10.6 °C 29.85in /  1010.7hPa Calm     89% 0.00in /  0mm 105 W/m2
06:54 54.5 °F /  12.5 °C 51.1 °F /  10.6 °C 29.85in /  1010.7hPa Calm     88.2% 0.00in /  0mm 98 W/m2
06:59 54.8 °F /  12.7 °C 51.4 °F /  10.8 °C 29.85in /  1010.7hPa Calm     88% 0.00in /  0mm 90 W/m2
07:04 55.1 °F /  12.8 °C 51.6 °F /  10.9 °C 29.85in /  1010.7hPa Calm     87.8% 0.00in /  0mm 90 W/m2
07:09 55.4 °F /  13 °C 51.6 °F /  10.9 °C 29.85in /  1010.7hPa WSW 0.1mph /  0.2km/h 3mph /  4.8km/h 87% 0.00in /  0mm 97 W/m2
07:14 55.6 °F /  13.1 °C 51.6 °F /  10.9 °C 29.85in /  1010.7hPa Calm   3mph /  4.8km/h 86.5% 0.00in /  0mm 118 W/m2
07:19 55.8 °F /  13.2 °C 51.7 °F /  10.9 °C 29.86in /  1011.1hPa Calm   3mph /  4.8km/h 86% 0.00in /  0mm 132 W/m2
07:24 56.1 °F /  13.4 °C 51.7 °F /  10.9 °C 29.86in /  1011.1hPa Calm   3mph /  4.8km/h 85.2% 0.00in /  0mm 148 W/m2
07:29 56.3 °F /  13.5 °C 51.5 °F /  10.8 °C 29.86in /  1011.1hPa WSW 0.1mph /  0.2km/h 3mph /  4.8km/h 84% 0.00in /  0mm 156 W/m2
07:34 56.6 °F /  13.7 °C 51.6 °F /  10.9 °C 29.86in /  1011.1hPa Calm   3mph /  4.8km/h 83.5% 0.00in /  0mm 171 W/m2
07:39 56.9 °F /  13.8 °C 51.6 °F /  10.9 °C 29.86in /  1011.1hPa West 0.4mph /  0.6km/h 3mph /  4.8km/h 82.6% 0.00in /  0mm 174 W/m2
07:44 57.2 °F /  14 °C 51.8 °F /  11 °C 29.86in /  1011.1hPa Calm   3mph /  4.8km/h 82% 0.00in /  0mm 171 W/m2
07:49 57.5 °F /  14.2 °C 51.8 °F /  11 °C 29.86in /  1011.1hPa Calm   3mph /  4.8km/h 81% 0.00in /  0mm 169 W/m2
07:54 57.8 °F /  14.3 °C 51.9 °F /  11.1 °C 29.86in /  1011.1hPa NW 0.1mph /  0.2km/h 4mph /  6.4km/h 80.6% 0.00in /  0mm 160 W/m2
07:59 58.1 °F /  14.5 °C 51.9 °F /  11.1 °C 29.86in /  1011.1hPa Calm   4mph /  6.4km/h 79.9% 0.00in /  0mm 160 W/m2
08:00 58.2 °F /  14.6 °C 51.7 °F /  10.9 °C 29.86in /  1011.1hPa Calm   4mph /  6.4km/h 79% 0.00in /  0mm 160 W/m2
08:09 58.3 °F /  14.6 °C 51.4 °F /  10.8 °C 29.87in /  1011.4hPa NNW 0.1mph /  0.2km/h 2mph /  3.2km/h 78% 0.00in /  0mm 200 W/m2
08:14 58.5 °F /  14.7 °C 51.8 °F /  11 °C 29.87in /  1011.4hPa North 0.4mph /  0.6km/h 4mph /  6.4km/h 78.3% 0.00in /  0mm 225 W/m2
08:19 58.8 °F /  14.9 °C 52.1 °F /  11.2 °C 29.87in /  1011.4hPa NNW 0.2mph /  0.3km/h 4mph /  6.4km/h 78.4% 0.00in /  0mm 260 W/m2
08:24 59.3 °F /  15.2 °C 52.2 °F /  11.2 °C 29.87in /  1011.4hPa Calm   4mph /  6.4km/h 77.3% 0.00in /  0mm 274 W/m2
08:29 59.8 °F /  15.4 °C 52.3 °F /  11.3 °C 29.87in /  1011.4hPa Calm   4mph /  6.4km/h 76.1% 0.00in /  0mm 267 W/m2
08:34 60.3 °F /  15.7 °C 52.1 °F /  11.2 °C 29.87in /  1011.4hPa NNE 0.2mph /  0.3km/h 4mph /  6.4km/h 74.4% 0.00in /  0mm 265 W/m2
08:39 60.6 °F /  15.9 °C 52 °F /  11.1 °C 29.87in /  1011.4hPa Calm   2mph /  3.2km/h 73.2% 0.00in /  0mm 250 W/m2
08:44 60.8 °F /  16 °C 52.3 °F /  11.3 °C 29.87in /  1011.4hPa Calm   2mph /  3.2km/h 73.5% 0.00in /  0mm 276 W/m2
08:49 61 °F /  16.1 °C 52.1 °F /  11.2 °C 29.87in /  1011.4hPa NNE 0.5mph /  0.8km/h 4mph /  6.4km/h 72.5% 0.00in /  0mm 313 W/m2
08:54 61.3 °F /  16.3 °C 52.5 °F /  11.4 °C 29.87in /  1011.4hPa NNE 0.2mph /  0.3km/h 4mph /  6.4km/h 72.8% 0.00in /  0mm 279 W/m2
08:59 61.6 °F /  16.4 °C 52.4 °F /  11.3 °C 29.87in /  1011.4hPa NNE 0.9mph /  1.4km/h 4mph /  6.4km/h 71.7% 0.00in /  0mm 260 W/m2
09:04 61.9 °F /  16.6 °C 52.2 °F /  11.2 °C 29.87in /  1011.4hPa NNE 0.5mph /  0.8km/h 4mph /  6.4km/h 70.5% 0.00in /  0mm 285 W/m2
09:09 62.1 °F /  16.7 °C 52.6 °F /  11.4 °C 29.87in /  1011.4hPa Calm   3mph /  4.8km/h 70.9% 0.00in /  0mm 318 W/m2
09:13 62.3 °F /  16.8 °C 53 °F /  11.7 °C 29.87in /  1011.4hPa Calm   3mph /  4.8km/h 71.6% 0.00in /  0mm 345 W/m2
09:19 62.8 °F /  17.1 °C 52.5 °F /  11.4 °C 29.87in /  1011.4hPa Calm   3mph /  4.8km/h 69.1% 0.00in /  0mm 432 W/m2
09:24 63.3 °F /  17.4 °C 52.5 °F /  11.4 °C 29.87in /  1011.4hPa NNE 0.7mph /  1.1km/h 4mph /  6.4km/h 68% 0.00in /  0mm 434 W/m2
09:29 64 °F /  17.8 °C 52 °F /  11.1 °C 29.87in /  1011.4hPa Calm   4mph /  6.4km/h 65.1% 0.00in /  0mm 438 W/m2
09:34 64.5 °F /  18.1 °C 52.5 °F /  11.4 °C 29.87in /  1011.4hPa NNW 0.7mph /  1.1km/h 4mph /  6.4km/h 65% 0.00in /  0mm 461 W/m2
09:39 65 °F /  18.3 °C 52.4 °F /  11.3 °C 29.87in /  1011.4hPa NNE 0.2mph /  0.3km/h 4mph /  6.4km/h 63.7% 0.00in /  0mm 438 W/m2
09:44 65.3 °F /  18.5 °C 52.3 °F /  11.3 °C 29.87in /  1011.4hPa Calm   4mph /  6.4km/h 62.8% 0.00in /  0mm 483 W/m2
09:49 65.7 °F /  18.7 °C 52.1 °F /  11.2 °C 29.87in /  1011.4hPa NNE 0.3mph /  0.5km/h 4mph /  6.4km/h 61.4% 0.00in /  0mm 610 W/m2
09:54 66.1 °F /  18.9 °C 52.3 °F /  11.3 °C 29.86in /  1011.1hPa NE 0.2mph /  0.3km/h 4mph /  6.4km/h 61.2% 0.00in /  0mm 624 W/m2
09:59 66.5 °F /  19.2 °C 51.4 °F /  10.8 °C 29.87in /  1011.4hPa ENE 0.5mph /  0.8km/h 5mph /  8km/h 58.3% 0.00in /  0mm 585 W/m2
10:04 66.8 °F /  19.3 °C 50.6 °F /  10.3 °C 29.86in /  1011.1hPa Calm   5mph /  8km/h 56.1% 0.00in /  0mm 573 W/m2
10:09 67.3 °F /  19.6 °C 52 °F /  11.1 °C 29.86in /  1011.1hPa NE 0.1mph /  0.2km/h 2mph /  3.2km/h 57.9% 0.00in /  0mm 533 W/m2
10:14 67.9 °F /  19.9 °C 52.2 °F /  11.2 °C 29.86in /  1011.1hPa Calm   2mph /  3.2km/h 57.2% 0.00in /  0mm 548 W/m2
10:19 68.1 °F /  20.1 °C 50.9 °F /  10.5 °C 29.86in /  1011.1hPa Calm   2mph /  3.2km/h 54.1% 0.00in /  0mm 527 W/m2
10:24 68.1 °F /  20.1 °C 50.2 °F /  10.1 °C 29.86in /  1011.1hPa NE 0.3mph /  0.5km/h 3mph /  4.8km/h 52.9% 0.00in /  0mm 554 W/m2
10:29 68.2 °F /  20.1 °C 50.4 °F /  10.2 °C 29.86in /  1011.1hPa NE 0.4mph /  0.6km/h 3mph /  4.8km/h 53% 0.00in /  0mm 559 W/m2
10:34 68.5 °F /  20.3 °C 50.4 °F /  10.2 °C 29.86in /  1011.1hPa Calm   3mph /  4.8km/h 52.5% 0.00in /  0mm 534 W/m2
10:39 68.7 °F /  20.4 °C 50 °F /  10 °C 29.86in /  1011.1hPa Calm   1mph /  1.6km/h 51.4% 0.00in /  0mm 557 W/m2
10:44 68.9 °F /  20.5 °C 50 °F /  10 °C 29.86in /  1011.1hPa Calm   1mph /  1.6km/h 51% 0.00in /  0mm 582 W/m2
10:49 69.1 °F /  20.6 °C 51 °F /  10.6 °C 29.86in /  1011.1hPa NE 0.1mph /  0.2km/h 3mph /  4.8km/h 52.6% 0.00in /  0mm 605 W/m2
10:54 69.7 °F /  20.9 °C 51.2 °F /  10.7 °C 29.86in /  1011.1hPa NE 0.1mph /  0.2km/h 3mph /  4.8km/h 51.7% 0.00in /  0mm 624 W/m2
10:59 70.4 °F /  21.3 °C 51.3 °F /  10.7 °C 29.86in /  1011.1hPa NE 0.1mph /  0.2km/h 3mph /  4.8km/h 50.8% 0.00in /  0mm 603 W/m2
11:04 70.8 °F /  21.6 °C 51 °F /  10.6 °C 29.86in /  1011.1hPa ENE 0.2mph /  0.3km/h 3mph /  4.8km/h 49.5% 0.00in /  0mm 596 W/m2
11:09 70.8 °F /  21.6 °C 50.8 °F /  10.4 °C 29.86in /  1011.1hPa Calm   2mph /  3.2km/h 49.1% 0.00in /  0mm 573 W/m2
11:14 70.8 °F /  21.6 °C 50.7 °F /  10.4 °C 29.86in /  1011.1hPa Calm   2mph /  3.2km/h 49.1% 0.00in /  0mm 536 W/m2
11:19 70.7 °F /  21.5 °C 51.2 °F /  10.7 °C 29.86in /  1011.1hPa Calm   2mph /  3.2km/h 50% 0.00in /  0mm 527 W/m2
11:24 70.7 °F /  21.5 °C 51.8 °F /  11 °C 29.85in /  1010.7hPa Calm   2mph /  3.2km/h 51.1% 0.00in /  0mm 615 W/m2
11:29 71.1 °F /  21.7 °C 52.1 °F /  11.2 °C 29.85in /  1010.7hPa NE 0.1mph /  0.2km/h 2mph /  3.2km/h 51.2% 0.00in /  0mm 642 W/m2
11:34 71.4 °F /  21.9 °C 51.4 °F /  10.8 °C 29.85in /  1010.7hPa Calm   2mph /  3.2km/h 49.2% 0.00in /  0mm 557 W/m2
11:39 71.4 °F /  21.9 °C 50.5 °F /  10.3 °C 29.85in /  1010.7hPa ENE 0.3mph /  0.5km/h 5mph /  8km/h 47.6% 0.00in /  0mm 461 W/m2
11:44 71.2 °F /  21.8 °C 50.3 °F /  10.2 °C 29.85in /  1010.7hPa Calm   5mph /  8km/h 47.5% 0.00in /  0mm 385 W/m2
11:49 71.2 °F /  21.8 °C 50.6 °F /  10.3 °C 29.85in /  1010.7hPa Calm   5mph /  8km/h 48.1% 0.00in /  0mm 383 W/m2
11:54 71.1 °F /  21.7 °C 50.1 °F /  10.1 °C 29.85in /  1010.7hPa Calm   5mph /  8km/h 47.3% 0.00in /  0mm 362 W/m2
11:59 71 °F /  21.7 °C 49 °F /  9.4 °C 29.85in /  1010.7hPa Calm   5mph /  8km/h 45.7% 0.00in /  0mm 332 W/m2
12:00 70.8 °F /  21.6 °C 48.4 °F /  9.1 °C 29.84in /  1010.4hPa Calm   5mph /  8km/h 45% 0.00in /  0mm 292 W/m2
12:09 70.7 °F /  21.5 °C 49.9 °F /  9.9 °C 29.84in /  1010.4hPa Calm     47.7% 0.00in /  0mm 283 W/m2
12:14 70.7 °F /  21.5 °C 50.9 °F /  10.5 °C 29.84in /  1010.4hPa Calm     49.6% 0.00in /  0mm 318 W/m2
12:19 70.6 °F /  21.4 °C 50.1 °F /  10.1 °C 29.85in /  1010.7hPa Calm     48.2% 0.00in /  0mm 318 W/m2
12:24 70.6 °F /  21.4 °C 51.2 °F /  10.7 °C 29.84in /  1010.4hPa Calm   1mph /  1.6km/h 50.3% 0.00in /  0mm 308 W/m2
12:29 70.6 °F /  21.4 °C 50.8 °F /  10.4 °C 29.84in /  1010.4hPa Calm   1mph /  1.6km/h 49.4% 0.00in /  0mm 336 W/m2
12:34 70.6 °F /  21.4 °C 51.4 °F /  10.8 °C 29.84in /  1010.4hPa ENE 0.1mph /  0.2km/h 3mph /  4.8km/h 50.7% 0.00in /  0mm 343 W/m2
12:39 70.7 °F /  21.5 °C 49.8 °F /  9.9 °C 29.84in /  1010.4hPa Calm   3mph /  4.8km/h 47.6% 0.00in /  0mm 387 W/m2
12:44 70.9 °F /  21.6 °C 49.9 °F /  9.9 °C 29.84in /  1010.4hPa ENE 0.1mph /  0.2km/h 3mph /  4.8km/h 47.4% 0.00in /  0mm 387 W/m2
12:49 71.1 °F /  21.7 °C 49.5 °F /  9.7 °C 29.84in /  1010.4hPa Calm   3mph /  4.8km/h 46.4% 0.00in /  0mm 338 W/m2
12:54 71.2 °F /  21.8 °C 49.5 °F /  9.7 °C 29.84in /  1010.4hPa ENE 0.2mph /  0.3km/h 4mph /  6.4km/h 46.1% 0.00in /  0mm 316 W/m2
12:59 71.3 °F /  21.8 °C 49.1 °F /  9.5 °C 29.84in /  1010.4hPa Calm   4mph /  6.4km/h 45.4% 0.00in /  0mm 415 W/m2
13:04 71.2 °F /  21.8 °C 49.3 °F /  9.6 °C 29.84in /  1010.4hPa ENE 0.4mph /  0.6km/h 4mph /  6.4km/h 45.8% 0.00in /  0mm 420 W/m2
13:09 71.2 °F /  21.8 °C 48.4 °F /  9.1 °C 29.84in /  1010.4hPa East 0.2mph /  0.3km/h 4mph /  6.4km/h 44.3% 0.00in /  0mm 373 W/m2
13:14 71.3 °F /  21.8 °C 49.7 °F /  9.8 °C 29.84in /  1010.4hPa SW 0.3mph /  0.5km/h 4mph /  6.4km/h 46.5% 0.00in /  0mm 339 W/m2
13:19 71.3 °F /  21.8 °C 48.9 °F /  9.4 °C 29.84in /  1010.4hPa SSW 0.1mph /  0.2km/h 4mph /  6.4km/h 44.9% 0.00in /  0mm 316 W/m2
13:24 71.2 °F /  21.8 °C 48.1 °F /  8.9 °C 29.84in /  1010.4hPa South 0.2mph /  0.3km/h 4mph /  6.4km/h 44% 0.00in /  0mm 316 W/m2
13:29 70.9 °F /  21.6 °C 48.4 °F /  9.1 °C 29.84in /  1010.4hPa SW 1.1mph /  1.8km/h 6mph /  9.7km/h 44.8% 0.00in /  0mm 308 W/m2
13:34 70.8 °F /  21.6 °C 48.8 °F /  9.3 °C 29.85in /  1010.7hPa SW 0.2mph /  0.3km/h 6mph /  9.7km/h 45.7% 0.00in /  0mm 281 W/m2
13:39 70.5 °F /  21.4 °C 49.5 °F /  9.7 °C 29.84in /  1010.4hPa SW 0.3mph /  0.5km/h 3mph /  4.8km/h 47.4% 0.00in /  0mm 290 W/m2
13:44 70.3 °F /  21.3 °C 49.2 °F /  9.6 °C 29.84in /  1010.4hPa SW 0.2mph /  0.3km/h 5mph /  8km/h 47% 0.00in /  0mm 285 W/m2
13:49 70.2 °F /  21.2 °C 50.2 °F /  10.1 °C 29.84in /  1010.4hPa SW 1.6mph /  2.6km/h 6mph /  9.7km/h 49.2% 0.00in /  0mm 279 W/m2
13:54 70 °F /  21.1 °C 51.2 °F /  10.7 °C 29.84in /  1010.4hPa WSW 0.6mph /  1km/h 6mph /  9.7km/h 51.2% 0.00in /  0mm 287 W/m2
13:59 69.8 °F /  21 °C 51.9 °F /  11.1 °C 29.84in /  1010.4hPa SW 1.6mph /  2.6km/h 9mph /  14.5km/h 52.9% 0.00in /  0mm 297 W/m2
14:04 69.5 °F /  20.8 °C 52.3 °F /  11.3 °C 29.85in /  1010.7hPa SW 0.8mph /  1.3km/h 9mph /  14.5km/h 54.2% 0.00in /  0mm 297 W/m2
14:09 69.3 °F /  20.7 °C 51.9 °F /  11.1 °C 29.84in /  1010.4hPa SW 1.8mph /  2.9km/h 9mph /  14.5km/h 54% 0.00in /  0mm 302 W/m2
14:14 69.1 °F /  20.6 °C 52.1 °F /  11.2 °C 29.84in /  1010.4hPa SW 0.7mph /  1.1km/h 9mph /  14.5km/h 54.6% 0.00in /  0mm 276 W/m2
14:19 69 °F /  20.6 °C 51.8 °F /  11 °C 29.84in /  1010.4hPa SW 0.4mph /  0.6km/h 9mph /  14.5km/h 54.4% 0.00in /  0mm 250 W/m2
14:24 68.8 °F /  20.4 °C 52.1 °F /  11.2 °C 29.84in /  1010.4hPa SW 0.4mph /  0.6km/h 9mph /  14.5km/h 55.2% 0.00in /  0mm 287 W/m2
14:29 68.6 °F /  20.3 °C 52.1 °F /  11.2 °C 29.84in /  1010.4hPa SW 0.2mph /  0.3km/h 9mph /  14.5km/h 55.5% 0.00in /  0mm 348 W/m2
14:34 68.5 °F /  20.3 °C 52.7 °F /  11.5 °C 29.84in /  1010.4hPa SW 0.2mph /  0.3km/h 9mph /  14.5km/h 57% 0.00in /  0mm 401 W/m2
14:39 68.6 °F /  20.3 °C 53.2 °F /  11.8 °C 29.84in /  1010.4hPa Calm   3mph /  4.8km/h 58% 0.00in /  0mm 346 W/m2
14:44 68.6 °F /  20.3 °C 52.6 °F /  11.4 °C 29.83in /  1010hPa Calm   3mph /  4.8km/h 56.6% 0.00in /  0mm 292 W/m2
14:49 68.4 °F /  20.2 °C 52.1 °F /  11.2 °C 29.83in /  1010hPa SW 0.2mph /  0.3km/h 4mph /  6.4km/h 56.1% 0.00in /  0mm 225 W/m2
14:54 68 °F /  20 °C 51.5 °F /  10.8 °C 29.82in /  1009.7hPa Calm   4mph /  6.4km/h 55.5% 0.00in /  0mm 197 W/m2
14:59 67.8 °F /  19.9 °C 51.7 °F /  10.9 °C 29.82in /  1009.7hPa Calm   4mph /  6.4km/h 56.3% 0.00in /  0mm 179 W/m2
15:04 67.7 °F /  19.8 °C 51.1 °F /  10.6 °C 29.82in /  1009.7hPa Calm   4mph /  6.4km/h 55.2% 0.00in /  0mm 230 W/m2
15:09 67.6 °F /  19.8 °C 51.2 °F /  10.7 °C 29.82in /  1009.7hPa Calm     55.7% 0.00in /  0mm 272 W/m2
15:14 67.6 °F /  19.8 °C 51.3 °F /  10.7 °C 29.82in /  1009.7hPa Calm     56% 0.00in /  0mm 272 W/m2
15:19 67.6 °F /  19.8 °C 51.7 °F /  10.9 °C 29.81in /  1009.4hPa Calm     56.7% 0.00in /  0mm 253 W/m2
15:24 67.6 °F /  19.8 °C 51.4 °F /  10.8 °C 29.81in /  1009.4hPa Calm     56.1% 0.00in /  0mm 237 W/m2
15:29 67.6 °F /  19.8 °C 51 °F /  10.6 °C 29.81in /  1009.4hPa Calm     55.3% 0.00in /  0mm 195 W/m2
15:34 67.5 °F /  19.7 °C 50.8 °F /  10.4 °C 29.81in /  1009.4hPa Calm     55.1% 0.00in /  0mm 162 W/m2
15:39 67.4 °F /  19.7 °C 51.3 °F /  10.7 °C 29.81in /  1009.4hPa SW 0.2mph /  0.3km/h 2mph /  3.2km/h 56.2% 0.00in /  0mm 121 W/m2
15:44 67.3 °F /  19.6 °C 51.3 °F /  10.7 °C 29.81in /  1009.4hPa Calm   2mph /  3.2km/h 56.5% 0.00in /  0mm 123 W/m2
15:49 67.1 °F /  19.5 °C 51.4 °F /  10.8 °C 29.81in /  1009.4hPa Calm   2mph /  3.2km/h 57% 0.00in /  0mm 114 W/m2
15:54 66.9 °F /  19.4 °C 51.1 °F /  10.6 °C 29.81in /  1009.4hPa Calm   2mph /  3.2km/h 56.9% 0.00in /  0mm 113 W/m2
15:59 66.6 °F /  19.2 °C 50.9 °F /  10.5 °C 29.81in /  1009.4hPa Calm   2mph /  3.2km/h 56.9% 0.00in /  0mm 105 W/m2
16:04 66.2 °F /  19 °C 50.4 °F /  10.2 °C 29.80in /  1009hPa Calm   2mph /  3.2km/h 56.7% 0.00in /  0mm 97 W/m2
16:09 65.9 °F /  18.8 °C 50.5 °F /  10.3 °C 29.80in /  1009hPa Calm     57.5% 0.00in /  0mm 102 W/m2
16:14 65.6 °F /  18.7 °C 51.5 °F /  10.8 °C 29.80in /  1009hPa Calm     60.3% 0.00in /  0mm 125 W/m2
16:19 65.4 °F /  18.6 °C 51.2 °F /  10.7 °C 29.81in /  1009.4hPa Calm     60% 0.00in /  0mm 123 W/m2
16:24 65.2 °F /  18.4 °C 51.6 °F /  10.9 °C 29.80in /  1009hPa Calm     61.4% 0.00in /  0mm 113 W/m2
16:29 65.1 °F /  18.4 °C 52.1 °F /  11.2 °C 29.80in /  1009hPa Calm     62.7% 0.00in /  0mm 114 W/m2
16:34 64.9 °F /  18.3 °C 52.1 °F /  11.2 °C 29.80in /  1009hPa Calm     63% 0.00in /  0mm 172 W/m2
16:39 64.9 °F /  18.3 °C 52.4 °F /  11.3 °C 29.80in /  1009hPa Calm     64.1% 0.00in /  0mm 192 W/m2
16:44 64.8 °F /  18.2 °C 52.7 °F /  11.5 °C 29.80in /  1009hPa Calm     64.8% 0.00in /  0mm 169 W/m2
16:49 64.7 °F /  18.2 °C 52.2 °F /  11.2 °C 29.80in /  1009hPa Calm     63.7% 0.00in /  0mm 125 W/m2
16:54 64.7 °F /  18.2 °C 52.4 °F /  11.3 °C 29.80in /  1009hPa Calm     64.5% 0.00in /  0mm 98 W/m2
16:59 64.5 °F /  18.1 °C 52.5 °F /  11.4 °C 29.79in /  1008.7hPa Calm     64.8% 0.00in /  0mm 98 W/m2
17:04 64.4 °F /  18 °C 52.4 °F /  11.3 °C 29.79in /  1008.7hPa Calm     65% 0.00in /  0mm 105 W/m2
17:09 64.4 °F /  18 °C 52.5 °F /  11.4 °C 29.79in /  1008.7hPa Calm     65.1% 0.00in /  0mm 134 W/m2
17:14 64.5 °F /  18.1 °C 52.7 °F /  11.5 °C 29.79in /  1008.7hPa Calm     65.5% 0.00in /  0mm 135 W/m2
17:19 64.5 °F /  18.1 °C 52.7 °F /  11.5 °C 29.79in /  1008.7hPa Calm     65.5% 0.00in /  0mm 121 W/m2
17:24 64.5 °F /  18.1 °C 52.9 °F /  11.6 °C 29.79in /  1008.7hPa Calm     65.9% 0.00in /  0mm 125 W/m2
17:29 64.4 °F /  18 °C 52.4 °F /  11.3 °C 29.79in /  1008.7hPa Calm     65.2% 0.00in /  0mm 104 W/m2
17:34 64.3 °F /  17.9 °C 53 °F /  11.7 °C 29.78in /  1008.4hPa Calm     66.8% 0.00in /  0mm 102 W/m2
17:39 64.4 °F /  18 °C 53.6 °F /  12 °C 29.79in /  1008.7hPa Calm   1mph /  1.6km/h 68% 0.00in /  0mm 95 W/m2
17:44 64.4 °F /  18 °C 53.4 °F /  11.9 °C 29.79in /  1008.7hPa Calm   1mph /  1.6km/h 67.6% 0.00in /  0mm 81 W/m2
17:49 64.3 °F /  17.9 °C 53.1 °F /  11.7 °C 29.79in /  1008.7hPa Calm   1mph /  1.6km/h 66.9% 0.00in /  0mm 54 W/m2
17:54 64.1 °F /  17.8 °C 52.6 °F /  11.4 °C 29.79in /  1008.7hPa Calm   1mph /  1.6km/h 66% 0.00in /  0mm 46 W/m2
17:59 64 °F /  17.8 °C 52.4 °F /  11.3 °C 29.79in /  1008.7hPa Calm   1mph /  1.6km/h 66% 0.00in /  0mm 35 W/m2
18:04 63.9 °F /  17.7 °C 52.8 °F /  11.6 °C 29.79in /  1008.7hPa Calm   1mph /  1.6km/h 67.2% 0.00in /  0mm 32 W/m2
18:09 63.7 °F /  17.6 °C 53.1 °F /  11.7 °C 29.79in /  1008.7hPa Calm     68.5% 0.00in /  0mm 25 W/m2
18:14 63.4 °F /  17.4 °C 53 °F /  11.7 °C 29.79in /  1008.7hPa Calm     69% 0.00in /  0mm 25 W/m2
18:19 63.1 °F /  17.3 °C 53.2 °F /  11.8 °C 29.79in /  1008.7hPa Calm     70.1% 0.00in /  0mm 25 W/m2
18:24 62.8 °F /  17.1 °C 53.7 °F /  12.1 °C 29.80in /  1009hPa Calm     72.1% 0.00in /  0mm 25 W/m2
18:29 62.5 °F /  16.9 °C 53.9 °F /  12.2 °C 29.80in /  1009hPa Calm     73.3% 0.00in /  0mm 18 W/m2
18:34 62.2 °F /  16.8 °C 54 °F /  12.2 °C 29.80in /  1009hPa Calm     74.6% 0.01in /  0.25mm 16 W/m2
18:39 61.8 °F /  16.6 °C 54.1 °F /  12.3 °C 29.80in /  1009hPa Calm     75.7% 0.01in /  0.25mm 16 W/m2
18:44 61.5 °F /  16.4 °C 54.1 °F /  12.3 °C 29.80in /  1009hPa Calm     76.6% 0.02in /  0.51mm 9 W/m2
18:49 61.3 °F /  16.3 °C 54.4 °F /  12.4 °C 29.80in /  1009hPa Calm     78.2% 0.02in /  0.51mm 7 W/m2
18:54 61 °F /  16.1 °C 54.7 °F /  12.6 °C 29.80in /  1009hPa Calm     79.7% 0.02in /  0.51mm 7 W/m2
18:59 60.7 °F /  15.9 °C 54.8 °F /  12.7 °C 29.80in /  1009hPa Calm     81% 0.03in /  0.76mm 5 W/m2
19:04 60.4 °F /  15.8 °C 54.6 °F /  12.6 °C 29.80in /  1009hPa Calm     81.1% 0.03in /  0.76mm 0 W/m2
19:09 60.2 °F /  15.7 °C 54.8 °F /  12.7 °C 29.80in /  1009hPa Calm     82.4% 0.04in /  1.02mm 0 W/m2
19:14 60.1 °F /  15.6 °C 55.3 °F /  12.9 °C 29.80in /  1009hPa Calm     84.1% 0.05in /  1.27mm 0 W/m2
19:19 60 °F /  15.6 °C 55.5 °F /  13.1 °C 29.80in /  1009hPa Calm     85% 0.05in /  1.27mm 0 W/m2
19:24 59.9 °F /  15.5 °C 55.6 °F /  13.1 °C 29.80in /  1009hPa Calm     85.8% 0.05in /  1.27mm 0 W/m2
19:29 59.7 °F /  15.4 °C 55.5 °F /  13.1 °C 29.80in /  1009hPa Calm     86% 0.06in /  1.52mm 0 W/m2
19:34 59.5 °F /  15.3 °C 55.5 °F /  13.1 °C 29.81in /  1009.4hPa Calm     86.6% 0.07in /  1.78mm 0 W/m2
19:39 59.3 °F /  15.2 °C 55.5 °F /  13.1 °C 29.81in /  1009.4hPa Calm     87.1% 0.07in /  1.78mm 0 W/m2
19:44 59.2 °F /  15.1 °C 55.7 °F /  13.2 °C 29.82in /  1009.7hPa Calm     88% 0.08in /  2.03mm 0 W/m2
19:49 59.1 °F /  15.1 °C 55.5 °F /  13.1 °C 29.82in /  1009.7hPa Calm     88% 0.08in /  2.03mm 0 W/m2
19:54 58.9 °F /  14.9 °C 55.4 °F /  13 °C 29.81in /  1009.4hPa Calm     88.2% 0.08in /  2.03mm 0 W/m2
19:59 58.8 °F /  14.9 °C 55.5 °F /  13.1 °C 29.81in /  1009.4hPa Calm     89% 0.09in /  2.29mm 0 W/m2
20:00 58.7 °F /  14.8 °C 55.5 °F /  13.1 °C 29.81in /  1009.4hPa Calm     89% 0.09in /  2.29mm 0 W/m2
20:09 58.6 °F /  14.8 °C 55.7 °F /  13.2 °C 29.81in /  1009.4hPa Calm     89.8% 0.06in /  1.52mm 0 W/m2
20:14 58.5 °F /  14.7 °C 55.6 °F /  13.1 °C 29.81in /  1009.4hPa Calm     90% 0.06in /  1.52mm 0 W/m2
20:19 58.3 °F /  14.6 °C 55.2 °F /  12.9 °C 29.81in /  1009.4hPa Calm     89.1% 0.06in /  1.52mm 0 W/m2
20:24 58.2 °F /  14.6 °C 55.1 °F /  12.8 °C 29.81in /  1009.4hPa Calm     89.5% 0.06in /  1.52mm 0 W/m2
20:29 58 °F /  14.4 °C 55 °F /  12.8 °C 29.81in /  1009.4hPa Calm     89.6% 0.06in /  1.52mm 0 W/m2
20:34 57.9 °F /  14.4 °C 54.9 °F /  12.7 °C 29.81in /  1009.4hPa Calm     90% 0.06in /  1.52mm 0 W/m2
20:39 57.7 °F /  14.3 °C 54.8 °F /  12.7 °C 29.81in /  1009.4hPa Calm     90% 0.03in /  0.76mm 0 W/m2
20:44 57.6 °F /  14.2 °C 54.6 °F /  12.6 °C 29.82in /  1009.7hPa Calm     90% 0.03in /  0.76mm 0 W/m2
20:49 57.5 °F /  14.2 °C 54.8 °F /  12.7 °C 29.82in /  1009.7hPa Calm     90.6% 0.03in /  0.76mm 0 W/m2
20:54 57.4 °F /  14.1 °C 54.8 °F /  12.7 °C 29.82in /  1009.7hPa Calm     91% 0.03in /  0.76mm 0 W/m2
20:59 57.4 °F /  14.1 °C 54.8 °F /  12.7 °C 29.82in /  1009.7hPa Calm     91% 0.03in /  0.76mm 0 W/m2
21:04 57.4 °F /  14.1 °C 54.9 °F /  12.7 °C 29.82in /  1009.7hPa Calm     91.5% 0.03in /  0.76mm 0 W/m2
21:09 57.4 °F /  14.1 °C 55.1 °F /  12.8 °C 29.82in /  1009.7hPa Calm     92% 0.00in /  0mm 0 W/m2
21:14 57.3 °F /  14.1 °C 54.9 °F /  12.7 °C 29.82in /  1009.7hPa Calm     91.5% 0.00in /  0mm 0 W/m2
21:19 57.2 °F /  14 °C 54.6 °F /  12.6 °C 29.83in /  1010hPa Calm     91% 0.00in /  0mm 0 W/m2
21:24 57.1 °F /  13.9 °C 54.5 °F /  12.5 °C 29.83in /  1010hPa Calm     91% 0.00in /  0mm 0 W/m2
21:29 57 °F /  13.9 °C 54.4 °F /  12.4 °C 29.83in /  1010hPa Calm     91% 0.00in /  0mm 0 W/m2
21:34 56.8 °F /  13.8 °C 54.2 °F /  12.3 °C 29.83in /  1010hPa Calm     91% 0.00in /  0mm 0 W/m2
21:39 56.7 °F /  13.7 °C 54.1 °F /  12.3 °C 29.83in /  1010hPa Calm     91% 0.00in /  0mm 0 W/m2
21:44 56.6 °F /  13.7 °C 54 °F /  12.2 °C 29.83in /  1010hPa Calm     91% 0.00in /  0mm 0 W/m2
21:49 56.6 °F /  13.7 °C 54 °F /  12.2 °C 29.83in /  1010hPa Calm     91% 0.00in /  0mm 0 W/m2
21:54 56.5 °F /  13.6 °C 53.8 °F /  12.1 °C 29.83in /  1010hPa Calm     90.8% 0.02in /  0.51mm 0 W/m2
21:59 56.3 °F /  13.5 °C 53.4 °F /  11.9 °C 29.84in /  1010.4hPa Calm     90% 0.02in /  0.51mm 0 W/m2
22:04 56.2 °F /  13.4 °C 53.3 °F /  11.8 °C 29.84in /  1010.4hPa Calm     90% 0.03in /  0.76mm 0 W/m2
22:09 56 °F /  13.3 °C 53.2 °F /  11.8 °C 29.83in /  1010hPa Calm     90% 0.03in /  0.76mm 0 W/m2
22:14 55.9 °F /  13.3 °C 53 °F /  11.7 °C 29.83in /  1010hPa Calm     90% 0.03in /  0.76mm 0 W/m2
22:19 55.7 °F /  13.2 °C 52.8 °F /  11.6 °C 29.83in /  1010hPa Calm     90% 0.03in /  0.76mm 0 W/m2
22:24 55.5 °F /  13.1 °C 52.7 °F /  11.5 °C 29.82in /  1009.7hPa Calm     90% 0.03in /  0.76mm 0 W/m2
22:29 55.4 °F /  13 °C 52.6 °F /  11.4 °C 29.82in /  1009.7hPa Calm     90% 0.03in /  0.76mm 0 W/m2
22:34 55.3 °F /  12.9 °C 52.7 °F /  11.5 °C 29.82in /  1009.7hPa Calm     90.7% 0.03in /  0.76mm 0 W/m2
22:39 55.3 °F /  12.9 °C 52.7 °F /  11.5 °C 29.81in /  1009.4hPa Calm     91% 0.03in /  0.76mm 0 W/m2
22:44 55.1 °F /  12.8 °C 52.5 °F /  11.4 °C 29.81in /  1009.4hPa Calm     91% 0.03in /  0.76mm 0 W/m2
22:49 55.1 °F /  12.8 °C 52.5 °F /  11.4 °C 29.81in /  1009.4hPa Calm     91% 0.03in /  0.76mm 0 W/m2
22:54 55.1 °F /  12.8 °C 52.8 °F /  11.6 °C 29.81in /  1009.4hPa Calm     91.6% 0.04in /  1.02mm 0 W/m2
22:59 55.2 °F /  12.9 °C 52.9 °F /  11.6 °C 29.81in /  1009.4hPa Calm     92% 0.04in /  1.02mm 0 W/m2
23:04 55.2 °F /  12.9 °C 52.9 °F /  11.6 °C 29.81in /  1009.4hPa Calm     92% 0.04in /  1.02mm 0 W/m2
23:09 55.1 °F /  12.8 °C 52.8 °F /  11.6 °C 29.81in /  1009.4hPa Calm     92% 0.04in /  1.02mm 0 W/m2
23:14 55 °F /  12.8 °C 52.8 °F /  11.6 °C 29.80in /  1009hPa Calm     92% 0.06in /  1.52mm 0 W/m2
23:19 55 °F /  12.8 °C 52.7 °F /  11.5 °C 29.80in /  1009hPa SW 0.1mph /  0.2km/h 1mph /  1.6km/h 92% 0.10in /  2.54mm 0 W/m2
23:24 54.9 °F /  12.7 °C 52.6 °F /  11.4 °C 29.80in /  1009hPa SE 0.3mph /  0.5km/h 4mph /  6.4km/h 92% 0.13in /  3.3mm 0 W/m2
23:29 54.9 °F /  12.7 °C 52.6 °F /  11.4 °C 29.79in /  1008.7hPa Calm   4mph /  6.4km/h 92% 0.16in /  4.06mm 0 W/m2
23:34 54.8 °F /  12.7 °C 52.6 °F /  11.4 °C 29.79in /  1008.7hPa Calm   4mph /  6.4km/h 92.4% 0.18in /  4.57mm 0 W/m2
23:39 54.8 °F /  12.7 °C 52.8 °F /  11.6 °C 29.78in /  1008.4hPa Calm   1mph /  1.6km/h 93% 0.22in /  5.59mm 0 W/m2
23:44 54.8 °F /  12.7 °C 52.8 °F /  11.6 °C 29.78in /  1008.4hPa Calm   1mph /  1.6km/h 93% 0.24in /  6.1mm 0 W/m2
23:49 54.8 °F /  12.7 °C 52.8 °F /  11.6 °C 29.78in /  1008.4hPa Calm   1mph /  1.6km/h 93% 0.25in /  6.35mm 0 W/m2
23:54 54.8 °F /  12.7 °C 52.8 °F /  11.6 °C 29.77in /  1008hPa Calm   1mph /  1.6km/h 93% 0.26in /  6.6mm 0 W/m2
23:59 54.9 °F /  12.7 °C 53.2 °F /  11.8 °C 29.77in /  1008hPa Calm   1mph /  1.6km/h 94% 0.29in /  7.37mm 0 W/m2
Hartford County Weather
Compliments of Weather Underground - 4 mb